createdAt,value
2022-11-15T00:00:59.150Z,99.99
2022-11-15T00:01:59.204Z,99.99
2022-11-15T00:02:59.135Z,99.99
2022-11-15T00:03:59.154Z,99.99
2022-11-15T00:04:59.120Z,99.99
2022-11-15T00:05:59.142Z,99.99
2022-11-15T00:06:59.160Z,99.99
2022-11-15T00:07:59.209Z,99.99
2022-11-15T00:08:59.131Z,99.99
2022-11-15T00:09:59.129Z,99.99
2022-11-15T00:10:59.116Z,99.99
2022-11-15T00:11:59.108Z,99.99
2022-11-15T00:12:59.131Z,99.99
2022-11-15T00:13:59.106Z,99.99
2022-11-15T00:14:59.112Z,99.99
2022-11-15T00:15:59.114Z,99.99
2022-11-15T00:16:59.116Z,99.99
2022-11-15T00:17:59.113Z,99.99
2022-11-15T00:18:59.108Z,99.99
2022-11-15T00:19:59.121Z,99.99
2022-11-15T00:20:59.088Z,99.99
2022-11-15T00:21:59.103Z,99.99
2022-11-15T00:22:59.085Z,99.99
2022-11-15T00:23:59.074Z,99.99
2022-11-15T00:24:59.104Z,99.99
2022-11-15T00:25:59.092Z,99.99
2022-11-15T00:26:59.066Z,99.99
2022-11-15T00:27:59.088Z,99.99
2022-11-15T00:28:59.090Z,99.99
2022-11-15T00:29:59.083Z,99.99
2022-11-15T00:30:59.083Z,99.99
2022-11-15T00:31:59.076Z,99.99
2022-11-15T00:32:59.064Z,99.99
2022-11-15T00:33:59.059Z,99.99
2022-11-15T00:34:59.046Z,99.99
2022-11-15T00:35:59.056Z,99.99
2022-11-15T00:36:59.067Z,99.99
2022-11-15T00:37:59.036Z,99.99
2022-11-15T00:38:59.055Z,99.99
2022-11-15T00:39:59.054Z,99.99
2022-11-15T00:40:59.032Z,99.99
2022-11-15T00:41:59.056Z,99.99
2022-11-15T00:42:59.041Z,99.99
2022-11-15T00:43:59.023Z,99.99
2022-11-15T00:44:59.042Z,99.99
2022-11-15T00:45:59.038Z,99.99
2022-11-15T00:46:59.028Z,99.99
2022-11-15T00:47:59.018Z,99.99
2022-11-15T00:48:59.021Z,99.99
2022-11-15T00:49:59.043Z,99.99
2022-11-15T00:50:59.019Z,99.99
2022-11-15T00:51:59.017Z,99.99
2022-11-15T00:52:59.019Z,99.99
2022-11-15T00:53:58.994Z,99.99
2022-11-15T00:54:59.018Z,99.99
2022-11-15T00:55:59.000Z,99.99
2022-11-15T00:56:59.003Z,99.99
2022-11-15T00:57:58.992Z,99.99
2022-11-15T00:58:58.985Z,99.99
2022-11-15T00:59:58.985Z,99.99
2022-11-15T01:00:59.018Z,99.99
2022-11-15T01:01:58.999Z,99.99
2022-11-15T01:02:58.982Z,99.99
2022-11-15T01:04:01.493Z,99.99
2022-11-15T01:04:58.990Z,99.99
2022-11-15T01:05:58.962Z,99.99
2022-11-15T01:06:59.073Z,99.99
2022-11-15T01:07:58.977Z,99.99
2022-11-15T01:08:58.976Z,99.99
2022-11-15T01:09:58.963Z,99.99
2022-11-15T01:10:58.955Z,99.99
2022-11-15T01:11:58.962Z,99.99
2022-11-15T01:12:58.981Z,99.99
2022-11-15T01:13:58.946Z,99.99
2022-11-15T01:14:58.952Z,99.99
2022-11-15T01:15:58.963Z,99.99
2022-11-15T01:16:58.945Z,99.99
2022-11-15T01:17:58.944Z,99.99
2022-11-15T01:18:58.958Z,99.99
2022-11-15T01:19:58.932Z,99.99
2022-11-15T01:20:58.931Z,99.99
2022-11-15T01:21:58.935Z,99.99
2022-11-15T01:22:58.924Z,99.99
2022-11-15T01:23:58.936Z,99.99
2022-11-15T01:24:58.924Z,99.99
2022-11-15T01:25:58.915Z,99.99
2022-11-15T01:26:58.903Z,99.99
2022-11-15T01:27:58.904Z,99.99
2022-11-15T01:28:58.911Z,99.99
2022-11-15T01:29:58.934Z,99.99
2022-11-15T01:30:58.895Z,99.99
2022-11-15T01:31:58.903Z,99.99
2022-11-15T01:32:58.898Z,99.99
2022-11-15T01:33:58.895Z,99.99
2022-11-15T01:34:58.904Z,99.99
2022-11-15T01:35:58.912Z,99.99
2022-11-15T01:36:58.879Z,99.99
2022-11-15T01:37:58.885Z,99.99
2022-11-15T01:38:58.922Z,99.99
2022-11-15T01:39:58.879Z,99.99
2022-11-15T01:40:58.897Z,99.99
2022-11-15T01:41:58.878Z,99.99
2022-11-15T01:42:58.878Z,99.99
2022-11-15T01:43:58.874Z,99.99
2022-11-15T01:44:58.871Z,99.99
2022-11-15T01:45:58.898Z,99.99
2022-11-15T01:46:58.872Z,99.99
2022-11-15T01:47:58.859Z,99.99
2022-11-15T01:48:58.871Z,99.99
2022-11-15T01:49:58.869Z,99.99
2022-11-15T01:50:58.842Z,99.99
2022-11-15T01:52:07.620Z,99.99
2022-11-15T01:52:59.033Z,99.99
2022-11-15T01:53:58.839Z,99.99
2022-11-15T01:54:58.842Z,99.99
2022-11-15T01:55:58.847Z,99.99
2022-11-15T01:56:59.837Z,99.99
2022-11-15T01:57:58.865Z,99.99
2022-11-15T01:58:58.870Z,99.99
2022-11-15T01:59:58.840Z,99.99
2022-11-15T02:00:58.924Z,99.99
2022-11-15T02:01:58.908Z,99.99
2022-11-15T02:02:58.871Z,99.99
2022-11-15T02:03:58.893Z,99.99
2022-11-15T02:04:58.844Z,99.99
2022-11-15T02:05:58.819Z,99.99
2022-11-15T02:06:58.895Z,99.99
2022-11-15T02:08:01.432Z,99.99
2022-11-15T02:08:59.866Z,99.99
2022-11-15T02:09:59.351Z,99.99
2022-11-15T02:11:00.408Z,99.99
2022-11-15T02:12:03.351Z,99.99
2022-11-15T02:13:00.873Z,99.99
2022-11-15T02:14:00.857Z,99.99
2022-11-15T02:15:05.933Z,99.99
2022-11-15T02:16:07.864Z,99.99
2022-11-15T02:17:01.357Z,99.99
2022-11-15T02:18:01.365Z,99.99
2022-11-15T02:19:01.882Z,99.99
2022-11-15T02:20:03.375Z,99.99
2022-11-15T02:21:03.356Z,99.99
2022-11-15T02:21:59.853Z,99.99
2022-11-15T02:22:59.416Z,99.99
2022-11-15T02:23:59.566Z,99.99
2022-11-15T02:24:59.859Z,99.99
2022-11-15T02:25:58.848Z,99.99
2022-11-15T02:27:00.397Z,99.99
2022-11-15T02:28:00.368Z,99.99
2022-11-15T02:28:59.509Z,99.99
2022-11-15T02:30:00.869Z,99.99
2022-11-15T02:31:02.877Z,99.99
2022-11-15T02:32:01.922Z,99.99
2022-11-15T02:33:01.350Z,99.99
2022-11-15T02:34:08.871Z,99.99
2022-11-15T02:34:59.429Z,99.99
2022-11-15T02:36:14.868Z,99.99
2022-11-15T02:37:01.850Z,99.99
2022-11-15T02:38:00.858Z,99.99
2022-11-15T02:39:04.372Z,99.99
2022-11-15T02:40:03.922Z,99.99
2022-11-15T02:41:00.737Z,99.99
2022-11-15T02:42:03.367Z,99.99
2022-11-15T02:43:06.981Z,99.99
2022-11-15T02:44:00.374Z,99.99
2022-11-15T02:44:59.494Z,99.99
2022-11-15T02:45:59.656Z,99.99
2022-11-15T02:47:00.864Z,99.99
2022-11-15T02:48:06.769Z,99.99
2022-11-15T02:49:05.369Z,99.99
2022-11-15T02:50:06.352Z,99.99
2022-11-15T02:52:29.621Z,99.99
2022-11-15T02:54:08.361Z,99.99
2022-11-15T02:55:02.862Z,99.99
2022-11-15T02:56:00.616Z,99.99
2022-11-15T02:59:09.771Z,99.99
2022-11-15T03:03:06.391Z,99.99
2022-11-15T03:04:04.866Z,99.99
2022-11-15T03:05:09.897Z,99.99
2022-11-15T03:06:09.640Z,99.99
2022-11-15T03:07:02.855Z,99.99
2022-11-15T03:08:07.869Z,99.99
2022-11-15T03:08:58.774Z,99.99
2022-11-15T03:10:09.877Z,99.99
2022-11-15T03:11:16.832Z,99.99
2022-11-15T03:13:02.384Z,99.99
2022-11-15T03:13:58.699Z,99.99
2022-11-15T03:15:04.361Z,99.99
2022-11-15T03:15:58.817Z,99.99
2022-11-15T03:17:59.568Z,99.99
2022-11-15T03:19:05.373Z,99.99
2022-11-15T03:20:05.429Z,99.99
2022-11-15T03:20:58.662Z,99.99
2022-11-15T03:22:00.904Z,99.99
2022-11-15T03:23:03.860Z,99.99
2022-11-15T03:23:58.721Z,99.99
2022-11-15T03:25:01.871Z,99.99
2022-11-15T03:26:00.056Z,99.99
2022-11-15T03:27:03.383Z,99.99
2022-11-15T03:28:03.919Z,99.99
2022-11-15T03:28:58.841Z,99.99
2022-11-15T03:30:03.876Z,99.99
2022-11-15T03:30:58.705Z,99.99
2022-11-15T03:31:59.363Z,99.99
2022-11-15T03:33:04.881Z,99.99
2022-11-15T03:33:58.689Z,99.99
2022-11-15T03:34:59.368Z,99.99
2022-11-15T03:35:58.668Z,99.99
2022-11-15T03:36:58.720Z,99.99
2022-11-15T03:37:58.677Z,99.99
2022-11-15T03:38:58.717Z,99.99
2022-11-15T03:40:01.868Z,99.99
2022-11-15T03:40:58.682Z,99.99
2022-11-15T03:41:59.385Z,99.99
2022-11-15T03:42:58.593Z,99.99
2022-11-15T03:43:58.713Z,99.99
2022-11-15T03:44:58.725Z,99.99
2022-11-15T03:45:58.668Z,99.99
2022-11-15T03:46:59.366Z,99.99
2022-11-15T03:48:00.889Z,99.99
2022-11-15T03:50:03.366Z,99.99
2022-11-15T03:52:05.876Z,99.99
2022-11-15T03:54:02.888Z,99.99
2022-11-15T03:55:02.567Z,99.99
2022-11-15T03:56:00.523Z,99.99
2022-11-15T03:57:02.403Z,99.99
2022-11-15T03:58:03.403Z,99.99
2022-11-15T04:00:06.297Z,99.99
2022-11-15T04:01:05.447Z,99.99
2022-11-15T04:02:12.386Z,99.99
2022-11-15T04:03:02.449Z,99.99
2022-11-15T04:04:01.866Z,99.99
2022-11-15T04:05:02.446Z,99.99
2022-11-15T04:05:58.523Z,99.99
2022-11-15T04:07:01.321Z,99.99
2022-11-15T04:08:03.372Z,99.99
2022-11-15T04:09:06.891Z,99.99
2022-11-15T04:10:04.393Z,99.99
2022-11-15T04:10:58.963Z,99.99
2022-11-15T04:12:01.879Z,99.99
2022-11-15T04:12:58.618Z,99.99
2022-11-15T04:13:58.644Z,99.99
2022-11-15T04:14:58.586Z,99.99
2022-11-15T04:15:59.676Z,99.99
2022-11-15T04:17:01.372Z,99.99
2022-11-15T04:17:58.573Z,99.99
2022-11-15T04:18:58.572Z,99.99
2022-11-15T04:20:04.409Z,99.99
2022-11-15T04:20:59.907Z,99.99
2022-11-15T04:22:00.766Z,99.99
2022-11-15T04:22:58.597Z,99.99
2022-11-15T04:24:05.978Z,99.99
2022-11-15T04:25:00.380Z,99.99
2022-11-15T04:25:58.596Z,99.99
2022-11-15T04:26:59.420Z,99.99
2022-11-15T04:28:01.877Z,99.99
2022-11-15T04:29:01.663Z,99.99
2022-11-15T04:30:06.937Z,99.99
2022-11-15T04:31:25.892Z,99.99
2022-11-15T04:31:59.382Z,99.99
2022-11-15T04:33:03.910Z,99.99
2022-11-15T04:33:59.380Z,99.99
2022-11-15T04:34:59.109Z,99.99
2022-11-15T04:36:02.894Z,99.99
2022-11-15T04:37:00.841Z,99.99
2022-11-15T04:38:09.393Z,99.99
2022-11-15T04:39:05.374Z,99.99
2022-11-15T04:40:04.937Z,99.99
2022-11-15T04:41:03.976Z,99.99
2022-11-15T04:42:05.393Z,99.99
2022-11-15T04:43:03.806Z,99.99
2022-11-15T04:45:04.198Z,99.99
2022-11-15T04:45:58.522Z,99.99
2022-11-15T04:46:58.496Z,99.99
2022-11-15T04:47:58.508Z,99.99
2022-11-15T04:49:01.377Z,99.99
2022-11-15T04:50:03.378Z,99.99
2022-11-15T04:50:58.494Z,99.99
2022-11-15T04:52:04.385Z,99.99
2022-11-15T04:52:58.876Z,99.99
2022-11-15T04:53:58.417Z,99.99
2022-11-15T04:54:59.204Z,99.99
2022-11-15T04:56:02.920Z,99.99
2022-11-15T04:57:00.759Z,99.99
2022-11-15T04:57:59.899Z,99.99
2022-11-15T04:59:00.885Z,99.99
2022-11-15T04:59:58.547Z,99.99
2022-11-15T05:01:58.353Z,99.99
2022-11-15T05:02:58.354Z,99.99
2022-11-15T05:03:58.452Z,99.99
2022-11-15T05:04:58.998Z,99.99
2022-11-15T05:05:58.451Z,99.99
2022-11-15T05:06:58.420Z,99.99
2022-11-15T05:07:58.316Z,99.99
2022-11-15T05:08:58.326Z,99.99
2022-11-15T05:09:58.325Z,99.99
2022-11-15T05:10:58.315Z,99.99
2022-11-15T05:11:59.886Z,99.99
2022-11-15T05:12:58.303Z,99.99
2022-11-15T05:13:58.310Z,99.99
2022-11-15T05:14:58.288Z,99.99
2022-11-15T05:15:58.404Z,99.99
2022-11-15T05:16:58.367Z,99.99
2022-11-15T05:17:58.295Z,99.99
2022-11-15T05:18:58.297Z,99.99
2022-11-15T05:20:00.882Z,99.99
2022-11-15T05:20:58.330Z,99.99
2022-11-15T05:21:58.395Z,99.99
2022-11-15T05:22:58.338Z,99.99
2022-11-15T05:23:58.274Z,99.99
2022-11-15T05:24:58.272Z,99.99
2022-11-15T05:25:58.316Z,99.99
2022-11-15T05:26:58.263Z,99.99
2022-11-15T05:27:58.272Z,99.99
2022-11-15T05:28:59.387Z,99.99
2022-11-15T05:29:58.268Z,99.99
2022-11-15T05:30:58.257Z,99.99
2022-11-15T05:31:58.244Z,99.99
2022-11-15T05:32:58.269Z,99.99
2022-11-15T05:33:58.342Z,99.99
2022-11-15T05:34:59.389Z,99.99
2022-11-15T05:36:00.026Z,99.99
2022-11-15T05:37:00.395Z,99.99
2022-11-15T05:37:59.391Z,99.99
2022-11-15T05:38:58.237Z,99.99
2022-11-15T05:39:58.246Z,99.99
2022-11-15T05:40:58.224Z,99.99
2022-11-15T05:41:58.253Z,99.99
2022-11-15T05:42:58.251Z,99.99
2022-11-15T05:43:58.218Z,99.99
2022-11-15T05:44:58.241Z,99.99
2022-11-15T05:45:58.202Z,99.99
2022-11-15T05:46:59.007Z,99.99
2022-11-15T05:47:58.239Z,99.99
2022-11-15T05:48:58.217Z,99.99
2022-11-15T05:49:58.261Z,99.99
2022-11-15T05:50:58.191Z,99.99
2022-11-15T05:51:58.355Z,99.99
2022-11-15T05:53:03.641Z,99.99
2022-11-15T05:53:58.175Z,99.99
2022-11-15T05:54:58.902Z,99.99
2022-11-15T05:55:58.186Z,99.99
2022-11-15T05:56:58.180Z,99.99
2022-11-15T05:57:58.385Z,99.99
2022-11-15T05:58:59.764Z,99.99
2022-11-15T05:59:58.178Z,99.99
2022-11-15T06:00:58.200Z,99.99
2022-11-15T06:01:58.198Z,99.99
2022-11-15T06:02:58.169Z,99.99
2022-11-15T06:03:58.179Z,99.99
2022-11-15T06:04:58.221Z,99.99
2022-11-15T06:05:58.151Z,99.99
2022-11-15T06:07:01.182Z,99.99
2022-11-15T06:07:58.477Z,99.99
2022-11-15T06:08:58.246Z,99.99
2022-11-15T06:09:58.159Z,99.99
2022-11-15T06:10:58.176Z,99.99
2022-11-15T06:11:58.410Z,99.99
2022-11-15T06:12:58.440Z,99.99
2022-11-15T06:13:58.969Z,99.99
2022-11-15T06:14:58.194Z,99.99
2022-11-15T06:15:58.716Z,99.99
2022-11-15T06:17:00.907Z,99.99
2022-11-15T06:17:58.128Z,99.99
2022-11-15T06:18:58.129Z,99.99
2022-11-15T06:19:58.150Z,99.99
2022-11-15T06:20:58.106Z,99.99
2022-11-15T06:21:58.126Z,99.99
2022-11-15T06:22:59.029Z,99.99
2022-11-15T06:23:58.221Z,99.99
2022-11-15T06:25:01.462Z,99.99
2022-11-15T06:25:58.116Z,99.99
2022-11-15T06:26:58.146Z,99.99
2022-11-15T06:27:59.404Z,99.99
2022-11-15T06:28:58.902Z,99.99
2022-11-15T06:30:06.055Z,99.99
2022-11-15T06:31:03.927Z,99.99
2022-11-15T06:33:02.898Z,99.99
2022-11-15T06:33:58.275Z,99.99
2022-11-15T06:34:58.097Z,99.99
2022-11-15T06:35:58.072Z,99.99
2022-11-15T06:36:58.061Z,99.99
2022-11-15T06:37:58.074Z,99.99
2022-11-15T06:38:58.058Z,99.99
2022-11-15T06:39:58.072Z,99.99
2022-11-15T06:40:58.995Z,99.99
2022-11-15T06:41:58.059Z,99.99
2022-11-15T06:42:58.048Z,99.99
2022-11-15T06:43:58.046Z,99.99
2022-11-15T06:44:58.044Z,99.99
2022-11-15T06:45:58.059Z,99.99
2022-11-15T06:46:58.046Z,99.99
2022-11-15T06:47:58.033Z,99.99
2022-11-15T06:48:58.057Z,99.99
2022-11-15T06:49:58.029Z,99.99
2022-11-15T06:50:58.185Z,99.99
2022-11-15T06:51:58.038Z,99.99
2022-11-15T06:52:58.025Z,99.99
2022-11-15T06:53:58.008Z,99.99
2022-11-15T06:54:58.010Z,99.99
2022-11-15T06:55:58.017Z,99.99
2022-11-15T06:56:58.016Z,99.99
2022-11-15T06:57:58.014Z,99.99
2022-11-15T06:58:58.010Z,99.99
2022-11-15T06:59:58.013Z,99.99
2022-11-15T07:00:58.070Z,99.99
2022-11-15T07:01:57.993Z,99.99
2022-11-15T07:02:58.085Z,99.99
2022-11-15T07:03:57.996Z,99.99
2022-11-15T07:04:58.025Z,99.99
2022-11-15T07:06:07.059Z,99.99
2022-11-15T07:07:03.493Z,99.99
2022-11-15T07:07:57.990Z,99.99
2022-11-15T07:08:57.990Z,99.99
2022-11-15T07:09:58.221Z,99.99
2022-11-15T07:10:57.994Z,99.99
2022-11-15T07:11:57.978Z,99.99
2022-11-15T07:12:57.973Z,99.99
2022-11-15T07:13:59.458Z,99.99
2022-11-15T07:14:58.273Z,99.99
2022-11-15T07:16:57.997Z,99.99
2022-11-15T07:17:58.012Z,99.99
2022-11-15T07:18:57.966Z,99.99
2022-11-15T07:19:57.968Z,99.99
2022-11-15T07:20:58.012Z,99.99
2022-11-15T07:21:58.017Z,99.99
2022-11-15T07:22:58.017Z,99.99
2022-11-15T07:23:58.924Z,99.99
2022-11-15T07:24:58.130Z,99.99
2022-11-15T07:25:57.973Z,99.99
2022-11-15T07:26:59.029Z,99.99
2022-11-15T07:28:02.006Z,99.99
2022-11-15T07:28:57.975Z,99.99
2022-11-15T07:29:59.419Z,99.99
2022-11-15T07:30:57.929Z,99.99
2022-11-15T07:31:59.930Z,99.99
2022-11-15T07:32:57.955Z,99.99
2022-11-15T07:33:57.929Z,99.99
2022-11-15T07:34:59.960Z,99.99
2022-11-15T07:36:02.914Z,99.99
2022-11-15T07:36:59.966Z,99.99
2022-11-15T07:37:58.015Z,99.99
2022-11-15T07:38:58.591Z,99.99
2022-11-15T07:39:57.983Z,99.99
2022-11-15T07:41:00.025Z,99.99
2022-11-15T07:41:57.988Z,99.99
2022-11-15T07:42:57.902Z,99.99
2022-11-15T07:44:04.921Z,99.99
2022-11-15T07:44:57.963Z,99.99
2022-11-15T07:45:59.623Z,99.99
2022-11-15T07:46:57.898Z,99.99
2022-11-15T07:47:58.430Z,99.99
2022-11-15T07:48:57.887Z,99.99
2022-11-15T07:49:57.932Z,99.99
2022-11-15T07:50:57.904Z,99.99
2022-11-15T07:51:57.877Z,99.99
2022-11-15T07:52:57.860Z,99.99
2022-11-15T07:53:57.906Z,99.99
2022-11-15T07:54:57.875Z,99.99
2022-11-15T07:55:57.884Z,99.99
2022-11-15T07:56:59.265Z,99.99
2022-11-15T07:57:57.870Z,99.99
2022-11-15T07:58:57.865Z,99.99
2022-11-15T07:59:57.862Z,99.99
2022-11-15T08:00:58.015Z,99.99
2022-11-15T08:01:59.010Z,99.99
2022-11-15T08:02:57.966Z,99.99
2022-11-15T08:03:57.845Z,99.99
2022-11-15T08:04:57.845Z,99.99
2022-11-15T08:05:57.845Z,99.99
2022-11-15T08:06:57.947Z,99.99
2022-11-15T08:07:57.844Z,99.99
2022-11-15T08:08:59.937Z,99.99
2022-11-15T08:09:58.671Z,99.99
2022-11-15T08:10:57.918Z,99.99
2022-11-15T08:12:00.490Z,99.99
2022-11-15T08:13:02.028Z,99.99
2022-11-15T08:14:12.576Z,99.99
2022-11-15T08:14:59.935Z,99.99
2022-11-15T08:15:58.000Z,99.99
2022-11-15T08:16:58.536Z,99.99
2022-11-15T08:17:57.851Z,99.99
2022-11-15T08:18:58.555Z,99.99
2022-11-15T08:19:57.845Z,99.99
2022-11-15T08:20:57.891Z,99.99
2022-11-15T08:21:58.542Z,99.99
2022-11-15T08:22:57.858Z,99.99
2022-11-15T08:23:57.884Z,99.99
2022-11-15T08:24:57.890Z,99.99
2022-11-15T08:25:58.520Z,99.99
2022-11-15T08:26:57.886Z,99.99
2022-11-15T08:27:57.839Z,99.99
2022-11-15T08:28:58.109Z,99.99
2022-11-15T08:29:59.609Z,99.99
2022-11-15T08:30:57.831Z,99.99
2022-11-15T08:31:57.836Z,99.99
2022-11-15T08:32:57.803Z,99.99
2022-11-15T08:33:58.077Z,99.99
2022-11-15T08:34:57.903Z,99.99
2022-11-15T08:35:57.801Z,99.99
2022-11-15T08:36:57.794Z,99.99
2022-11-15T08:37:58.438Z,99.99
2022-11-15T08:38:57.870Z,99.99
2022-11-15T08:39:57.875Z,99.99
2022-11-15T08:40:57.928Z,99.99
2022-11-15T08:41:58.984Z,99.99
2022-11-15T08:42:57.908Z,99.99
2022-11-15T08:43:57.834Z,99.99
2022-11-15T08:44:57.785Z,99.99
2022-11-15T08:45:57.867Z,99.99
2022-11-15T08:46:57.779Z,99.99
2022-11-15T08:47:57.842Z,99.99
2022-11-15T08:48:57.813Z,99.99
2022-11-15T08:49:57.838Z,99.99
2022-11-15T08:50:57.768Z,99.99
2022-11-15T08:51:57.786Z,99.99
2022-11-15T08:52:57.778Z,99.99
2022-11-15T08:53:57.770Z,99.99
2022-11-15T08:54:57.780Z,99.99
2022-11-15T08:55:57.852Z,99.99
2022-11-15T08:56:57.753Z,99.99
2022-11-15T08:57:57.784Z,99.99
2022-11-15T08:58:57.776Z,99.99
2022-11-15T08:59:57.755Z,99.99
2022-11-15T09:00:57.792Z,99.99
2022-11-15T09:01:57.822Z,99.99
2022-11-15T09:02:57.999Z,99.99
2022-11-15T09:03:57.769Z,99.99
2022-11-15T09:04:57.821Z,99.99
2022-11-15T09:05:57.857Z,99.99
2022-11-15T09:06:57.826Z,99.99
2022-11-15T09:07:57.812Z,99.99
2022-11-15T09:08:57.871Z,99.99
2022-11-15T09:09:57.788Z,99.99
2022-11-15T09:10:57.784Z,99.99
2022-11-15T09:12:02.787Z,99.99
2022-11-15T09:12:59.990Z,99.99
2022-11-15T09:13:57.757Z,99.99
2022-11-15T09:14:58.679Z,99.99
2022-11-15T09:15:57.838Z,99.99
2022-11-15T09:16:57.775Z,99.99
2022-11-15T09:17:57.745Z,99.99
2022-11-15T09:18:57.833Z,99.99
2022-11-15T09:19:57.744Z,99.99
2022-11-15T09:20:57.729Z,99.99
2022-11-15T09:21:57.768Z,99.99
2022-11-15T09:22:57.744Z,99.99
2022-11-15T09:23:58.536Z,99.99
2022-11-15T09:25:00.455Z,99.99
2022-11-15T09:25:58.460Z,99.99
2022-11-15T09:26:57.821Z,99.99
2022-11-15T09:27:57.758Z,99.99
2022-11-15T09:29:00.457Z,99.99
2022-11-15T09:29:59.029Z,99.99
2022-11-15T09:30:57.766Z,99.99
2022-11-15T09:31:57.722Z,99.99
2022-11-15T09:32:57.731Z,99.99
2022-11-15T09:33:57.761Z,99.99
2022-11-15T09:34:57.747Z,99.99
2022-11-15T09:35:57.721Z,99.99
2022-11-15T09:36:57.708Z,99.99
2022-11-15T09:37:57.709Z,99.99
2022-11-15T09:38:57.708Z,99.99
2022-11-15T09:39:57.712Z,99.99
2022-11-15T09:40:57.733Z,99.99
2022-11-15T09:41:57.707Z,99.99
2022-11-15T09:42:57.698Z,99.99
2022-11-15T09:43:57.700Z,99.99
2022-11-15T09:44:57.703Z,99.99
2022-11-15T09:45:57.717Z,99.99
2022-11-15T09:46:57.688Z,99.99
2022-11-15T09:47:57.711Z,99.99
2022-11-15T09:48:57.711Z,99.99
2022-11-15T09:49:58.123Z,99.99
2022-11-15T09:50:57.732Z,99.99
2022-11-15T09:51:57.690Z,99.99
2022-11-15T09:52:57.840Z,99.99
2022-11-15T09:54:30.844Z,99.99
2022-11-15T09:54:57.728Z,99.99
2022-11-15T09:55:57.775Z,99.99
2022-11-15T09:56:57.754Z,99.99
2022-11-15T09:58:01.482Z,99.99
2022-11-15T09:58:57.678Z,99.99
2022-11-15T10:00:04.041Z,99.99
2022-11-15T10:00:57.808Z,99.99
2022-11-15T10:01:57.811Z,99.99
2022-11-15T10:02:57.703Z,99.90
2022-11-15T10:03:57.750Z,99.95
2022-11-15T10:04:57.765Z,99.76
2022-11-15T10:05:57.692Z,99.28
2022-11-15T10:06:57.752Z,98.80
2022-11-15T10:07:57.729Z,98.71
2022-11-15T10:08:57.684Z,98.71
2022-11-15T10:09:57.668Z,98.80
2022-11-15T10:11:22.733Z,98.37
2022-11-15T10:11:57.710Z,98.75
2022-11-15T10:12:57.678Z,98.28
2022-11-15T10:13:57.715Z,97.42
2022-11-15T10:14:57.678Z,97.13
2022-11-15T10:15:57.683Z,96.89
2022-11-15T10:16:58.463Z,96.80
2022-11-15T10:18:00.004Z,96.32
2022-11-15T10:18:58.464Z,95.27
2022-11-15T10:20:01.105Z,95.36
2022-11-15T10:20:57.871Z,95.65
2022-11-15T10:21:57.758Z,94.79
2022-11-15T10:22:58.483Z,95.07
2022-11-15T10:23:57.677Z,95.27
2022-11-15T10:24:57.715Z,95.36
2022-11-15T10:26:00.063Z,95.56
2022-11-15T10:26:57.685Z,95.56
2022-11-15T10:27:57.697Z,95.94
2022-11-15T10:28:57.708Z,95.41
2022-11-15T10:29:58.631Z,95.70
2022-11-15T10:30:57.694Z,96.27
2022-11-15T10:31:57.676Z,96.46
2022-11-15T10:32:57.682Z,96.17
2022-11-15T10:33:57.786Z,97.13
2022-11-15T10:34:57.688Z,97.42
2022-11-15T10:35:57.685Z,97.71
2022-11-15T10:36:57.701Z,97.32
2022-11-15T10:37:57.753Z,97.80
2022-11-15T10:38:57.748Z,98.80
2022-11-15T10:39:57.772Z,99.19
2022-11-15T10:40:58.909Z,99.28
2022-11-15T10:41:57.743Z,98.23
2022-11-15T10:42:57.948Z,96.84
2022-11-15T10:43:58.475Z,96.84
2022-11-15T10:44:59.433Z,97.13
2022-11-15T10:46:05.834Z,97.23
2022-11-15T10:46:57.734Z,97.80
2022-11-15T10:47:57.731Z,98.18
2022-11-15T10:48:57.701Z,98.94
2022-11-15T10:50:01.487Z,99.43
2022-11-15T10:50:58.761Z,98.37
2022-11-15T10:52:00.481Z,98.37
2022-11-15T10:52:57.730Z,98.57
2022-11-15T10:53:58.606Z,98.47
2022-11-15T10:54:57.895Z,98.94
2022-11-15T10:55:57.701Z,98.94
2022-11-15T10:56:57.725Z,98.75
2022-11-15T10:57:58.485Z,98.94
2022-11-15T10:58:58.223Z,97.99
2022-11-15T10:59:57.866Z,98.75
2022-11-15T11:00:57.721Z,98.66
2022-11-15T11:01:57.837Z,98.75
2022-11-15T11:02:57.686Z,98.57
2022-11-15T11:03:57.670Z,98.47
2022-11-15T11:04:57.686Z,98.85
2022-11-15T11:05:57.656Z,98.66
2022-11-15T11:06:57.791Z,98.47
2022-11-15T11:07:57.663Z,98.13
2022-11-15T11:08:57.684Z,97.85
2022-11-15T11:09:58.490Z,98.13
2022-11-15T11:11:02.693Z,98.13
2022-11-15T11:11:57.666Z,97.52
2022-11-15T11:12:57.656Z,96.37
2022-11-15T11:13:57.725Z,96.84
2022-11-15T11:14:57.730Z,96.03
2022-11-15T11:15:57.714Z,95.46
2022-11-15T11:16:58.487Z,94.41
2022-11-15T11:17:57.652Z,94.50
2022-11-15T11:18:57.657Z,94.55
2022-11-15T11:19:57.684Z,93.59
2022-11-15T11:20:59.002Z,93.30
2022-11-15T11:21:59.131Z,92.83
2022-11-15T11:22:58.566Z,92.63
2022-11-15T11:23:57.668Z,92.63
2022-11-15T11:24:57.692Z,93.12
2022-11-15T11:25:57.650Z,93.35
2022-11-15T11:26:57.662Z,92.40
2022-11-15T11:27:57.677Z,93.16
2022-11-15T11:29:57.664Z,92.40
2022-11-15T11:30:57.668Z,92.01
2022-11-15T11:31:57.665Z,92.30
2022-11-15T11:32:57.685Z,92.01
2022-11-15T11:33:57.638Z,91.82
2022-11-15T11:34:57.681Z,91.72
2022-11-15T11:36:01.169Z,91.68
2022-11-15T11:36:57.751Z,91.58
2022-11-15T11:37:57.655Z,91.63
2022-11-15T11:38:58.105Z,90.86
2022-11-15T11:39:58.644Z,90.67
2022-11-15T11:40:57.681Z,91.39
2022-11-15T11:41:57.691Z,91.63
2022-11-15T11:42:57.674Z,92.21
2022-11-15T11:43:57.787Z,92.58
2022-11-15T11:44:57.781Z,92.78
2022-11-15T11:45:57.649Z,92.35
2022-11-15T11:46:57.674Z,91.58
2022-11-15T11:47:57.632Z,91.58
2022-11-15T11:48:57.674Z,89.86
2022-11-15T11:49:57.705Z,88.90
2022-11-15T11:50:57.658Z,89.37
2022-11-15T11:51:57.671Z,89.37
2022-11-15T11:53:02.500Z,89.42
2022-11-15T11:53:57.659Z,88.75
2022-11-15T11:54:57.683Z,88.75
2022-11-15T11:55:57.678Z,88.17
2022-11-15T11:56:57.667Z,87.98
2022-11-15T11:57:57.673Z,87.60
2022-11-15T11:58:57.760Z,87.41
2022-11-15T11:59:57.691Z,87.21
2022-11-15T12:00:57.678Z,87.21
2022-11-15T12:01:59.009Z,88.23
2022-11-15T12:03:00.226Z,88.61
2022-11-15T12:03:57.690Z,89.23
2022-11-15T12:04:57.658Z,89.04
2022-11-15T12:05:57.649Z,88.17
2022-11-15T12:06:58.763Z,87.79
2022-11-15T12:08:00.707Z,87.12
2022-11-15T12:08:57.658Z,88.08
2022-11-15T12:09:57.752Z,89.04
2022-11-15T12:10:57.799Z,88.90
2022-11-15T12:11:58.570Z,89.47
2022-11-15T12:12:57.724Z,90.33
2022-11-15T12:13:57.714Z,91.10
2022-11-15T12:15:01.007Z,90.91
2022-11-15T12:15:57.739Z,91.25
2022-11-15T12:16:58.853Z,91.49
2022-11-15T12:17:57.760Z,91.25
2022-11-15T12:18:58.545Z,91.82
2022-11-15T12:19:57.683Z,91.72
2022-11-15T12:20:57.666Z,92.11
2022-11-15T12:21:57.680Z,91.72
2022-11-15T12:23:02.140Z,92.01
2022-11-15T12:23:57.707Z,91.72
2022-11-15T12:24:59.529Z,92.01
2022-11-15T12:25:57.642Z,92.78
2022-11-15T12:26:57.688Z,92.49
2022-11-15T12:27:57.682Z,92.87
2022-11-15T12:29:07.517Z,92.01
2022-11-15T12:29:57.749Z,92.49
2022-11-15T12:30:57.664Z,93.07
2022-11-15T12:31:57.698Z,93.02
2022-11-15T12:32:57.730Z,92.92
2022-11-15T12:34:00.609Z,92.54
2022-11-15T12:34:58.134Z,92.44
2022-11-15T12:35:57.675Z,92.83
2022-11-15T12:36:57.671Z,93.02
2022-11-15T12:37:57.775Z,92.73
2022-11-15T12:38:57.775Z,92.83
2022-11-15T12:40:03.385Z,92.73
2022-11-15T12:40:59.224Z,92.63
2022-11-15T12:41:57.777Z,93.21
2022-11-15T12:42:58.516Z,92.63
2022-11-15T12:43:57.662Z,93.02
2022-11-15T12:44:57.745Z,92.54
2022-11-15T12:45:57.669Z,92.83
2022-11-15T12:46:57.657Z,92.06
2022-11-15T12:47:57.655Z,92.06
2022-11-15T12:48:57.658Z,92.54
2022-11-15T12:49:57.760Z,92.63
2022-11-15T12:50:57.677Z,92.83
2022-11-15T12:51:57.665Z,92.73
2022-11-15T12:52:57.666Z,92.54
2022-11-15T12:53:57.660Z,92.44
2022-11-15T12:54:57.652Z,92.92
2022-11-15T12:55:57.663Z,92.63
2022-11-15T12:56:57.792Z,93.21
2022-11-15T12:57:57.672Z,92.54
2022-11-15T12:58:57.655Z,92.92
2022-11-15T12:59:57.664Z,93.30
2022-11-15T13:00:57.750Z,93.21
2022-11-15T13:01:57.663Z,93.21
2022-11-15T13:02:57.672Z,92.83
2022-11-15T13:03:57.666Z,93.12
2022-11-15T13:04:57.676Z,92.83
2022-11-15T13:05:57.740Z,92.54
2022-11-15T13:06:59.588Z,93.21
2022-11-15T13:07:57.682Z,93.21
2022-11-15T13:08:57.674Z,93.12
2022-11-15T13:09:57.727Z,93.21
2022-11-15T13:10:57.674Z,93.02